Time;durP1;ratioP1;P1;durP2;ratioP2;P2;SDS_P1;SDS_P2;PMS_P1;PMS_P2;Temp;Humidity;BMP_temperature;BMP_pressure;BME280_temperature;BME280_humidity;BME280_pressure;Samples;Min_cycle;Max_cycle;Signal;HPM_P1;HPM_P2
2023/07/04 00:01:10;;;;;;;20.15;4.70;;;13.30;87.10;;;;;;4945479;28;20440;-83
2023/07/04 00:03:42;;;;;;;22.50;5.13;;;13.40;86.70;;;;;;4952994;28;20104;-82
2023/07/04 00:06:12;;;;;;;17.23;4.60;;;13.40;86.40;;;;;;4964278;28;20077;-83
2023/07/04 00:08:39;;;;;;;12.38;4.43;;;13.40;86.70;;;;;;4955856;28;20136;-82
2023/07/04 00:11:08;;;;;;;10.88;4.80;;;13.40;86.40;;;;;;4947189;28;20047;-82
2023/07/04 00:13:37;;;;;;;14.93;5.43;;;13.40;86.40;;;;;;4968501;28;20146;-82
2023/07/04 00:16:09;;;;;;;13.88;4.75;;;13.50;86.40;;;;;;4946652;28;20063;-82
2023/07/04 00:18:36;;;;;;;17.77;4.90;;;13.50;86.80;;;;;;4975535;28;20057;-83
2023/07/04 00:21:07;;;;;;;16.35;5.18;;;13.50;86.80;;;;;;4953665;28;20066;-82
2023/07/04 00:23:36;;;;;;;17.15;5.05;;;13.50;85.90;;;;;;4959603;28;20054;-82
2023/07/04 00:26:06;;;;;;;22.10;5.88;;;13.50;86.20;;;;;;4975626;28;20117;-83
2023/07/04 00:28:33;;;;;;;15.52;5.05;;;13.60;85.50;;;;;;4954024;28;20393;-81
2023/07/04 00:31:03;;;;;;;17.77;5.40;;;13.60;86.40;;;;;;4952535;28;20054;-81
2023/07/04 00:33:33;;;;;;;17.23;5.65;;;13.60;86.40;;;;;;4949441;28;20134;-81
2023/07/04 00:36:07;;;;;;;20.00;5.05;;;13.60;86.60;;;;;;4967695;28;20063;-81
2023/07/04 00:38:36;;;;;;;12.63;5.20;;;13.70;86.90;;;;;;4967867;28;20090;-81
2023/07/04 00:41:10;;;;;;;17.38;4.85;;;13.70;86.10;;;;;;4976441;28;20062;-80
2023/07/04 00:44:13;;;;;;;13.13;5.40;;;13.70;86.10;;;;;;4968554;28;20460;-81
2023/07/04 00:47:04;;;;;;;14.30;5.00;;;13.70;84.90;;;;;;4961307;28;20054;-81
2023/07/04 00:49:43;;;;;;;21.95;5.57;;;13.80;85.50;;;;;;4950050;28;20050;-81
2023/07/04 00:52:23;;;;;;;16.42;5.05;;;13.80;85.70;;;;;;4950941;28;20046;-81
2023/07/04 00:54:54;;;;;;;15.23;5.22;;;13.80;85.40;;;;;;4944394;28;20291;-81
2023/07/04 00:57:23;;;;;;;18.30;6.35;;;13.80;85.80;;;;;;4953166;28;20097;-81
2023/07/04 00:59:52;;;;;;;17.45;5.50;;;13.90;86.30;;;;;;4952457;28;20094;-82
2023/07/04 01:02:24;;;;;;;18.08;5.40;;;13.80;86.60;;;;;;4955181;28;20455;-83
2023/07/04 01:04:52;;;;;;;23.45;5.80;;;13.90;86.20;;;;;;4953405;28;20053;-83
2023/07/04 01:07:35;;;;;;;22.35;5.47;;;13.90;87.10;;;;;;4954285;28;20114;-83
2023/07/04 01:10:11;;;;;;;23.60;6.40;;;13.90;86.80;;;;;;4969971;28;20815;-86
2023/07/04 01:12:39;;;;;;;29.00;6.30;;;13.90;88.20;;;;;;4970660;28;20130;-84
2023/07/04 01:15:08;;;;;;;22.75;5.88;;;13.80;88.90;;;;;;4959315;28;20050;-83
2023/07/04 01:17:35;;;;;;;19.40;6.72;;;13.70;90.30;;;;;;4954757;28;20057;-83
2023/07/04 01:20:06;;;;;;;21.30;6.50;;;13.60;91.80;;;;;;4953308;28;20047;-82
2023/07/04 01:22:47;;;;;;;22.58;6.57;;;13.50;92.20;;;;;;4975965;28;20155;-83
2023/07/04 01:25:38;;;;;;;21.80;6.97;;;13.30;93.40;;;;;;4968648;28;20106;-82
2023/07/04 01:28:06;;;;;;;13.80;6.18;;;13.20;93.80;;;;;;4971259;28;20110;-82
2023/07/04 01:30:38;;;;;;;26.33;7.00;;;13.10;94.50;;;;;;4954885;28;20069;-82
2023/07/04 01:33:08;;;;;;;19.00;6.97;;;13.10;95.30;;;;;;4945258;28;20046;-82
2023/07/04 01:35:36;;;;;;;27.40;6.88;;;13.00;95.80;;;;;;4956996;28;20138;-81
2023/07/04 01:38:05;;;;;;;26.80;7.50;;;13.00;96.20;;;;;;4969197;28;20511;-83
2023/07/04 01:40:34;;;;;;;20.23;7.35;;;13.00;96.70;;;;;;4956045;28;20129;-82
2023/07/04 01:43:02;;;;;;;19.23;7.30;;;12.90;96.60;;;;;;4976559;28;20121;-85
2023/07/04 01:45:29;;;;;;;26.38;8.48;;;12.90;97.00;;;;;;4955964;28;20046;-85
2023/07/04 01:47:56;;;;;;;23.42;8.27;;;12.90;97.10;;;;;;4968158;28;20047;-84
2023/07/04 01:50:23;;;;;;;24.02;8.48;;;12.90;97.70;;;;;;4954179;28;20046;-84
2023/07/04 01:52:50;;;;;;;25.27;8.35;;;12.90;97.60;;;;;;4952100;28;20713;-82
2023/07/04 01:55:18;;;;;;;23.00;8.13;;;12.90;97.70;;;;;;4954392;28;20173;-82
2023/07/04 01:57:46;;;;;;;24.88;8.75;;;12.90;98.00;;;;;;4952086;29;20110;-82
2023/07/04 02:00:13;;;;;;;20.55;8.13;;;12.90;97.80;;;;;;4953505;28;20090;-83
2023/07/04 02:02:41;;;;;;;28.73;9.05;;;12.90;97.40;;;;;;4966630;28;20138;-82
2023/07/04 02:05:09;;;;;;;21.15;7.95;;;12.90;97.80;;;;;;4968374;28;20126;-81
2023/07/04 02:07:36;;;;;;;16.92;7.97;;;12.90;97.70;;;;;;4956567;28;20088;-82
2023/07/04 02:10:03;;;;;;;20.98;8.07;;;12.90;97.70;;;;;;4974838;28;20050;-81
2023/07/04 02:12:30;;;;;;;26.30;8.30;;;12.90;97.30;;;;;;4954059;28;20133;-81
2023/07/04 02:14:57;;;;;;;18.27;7.93;;;12.90;97.60;;;;;;4952368;28;20560;-80
2023/07/04 02:17:24;;;;;;;18.98;7.72;;;12.90;97.50;;;;;;4953931;28;20050;-80
2023/07/04 02:19:52;;;;;;;21.38;7.43;;;12.90;97.60;;;;;;4953806;28;20054;-81
2023/07/04 02:22:18;;;;;;;21.23;8.38;;;12.90;97.80;;;;;;4983402;28;20711;-81
2023/07/04 02:24:45;;;;;;;21.73;7.22;;;12.90;97.70;;;;;;4973560;28;20117;-83
2023/07/04 02:27:12;;;;;;;23.58;6.93;;;12.90;97.20;;;;;;4946567;28;20416;-83
2023/07/04 02:29:39;;;;;;;11.82;6.30;;;12.90;97.50;;;;;;4973190;28;20057;-82
2023/07/04 02:32:06;;;;;;;11.02;5.32;;;12.90;97.20;;;;;;4958997;28;20055;-82
2023/07/04 02:34:33;;;;;;;11.95;5.47;;;12.90;97.10;;;;;;4974380;28;20396;-82
2023/07/04 02:37:00;;;;;;;11.95;5.50;;;12.90;96.70;;;;;;4965660;28;21938;-83
2023/07/04 02:39:29;;;;;;;13.25;5.18;;;12.80;96.20;;;;;;4954974;28;20085;-83
2023/07/04 02:41:57;;;;;;;8.13;4.45;;;12.80;96.50;;;;;;4949832;28;20799;-82
2023/07/04 02:44:23;;;;;;;16.45;4.45;;;12.80;96.10;;;;;;4969691;28;20579;-82
2023/07/04 02:46:50;;;;;;;12.93;4.25;;;12.80;96.10;;;;;;4952081;28;20098;-81
2023/07/04 02:49:17;;;;;;;14.65;4.47;;;12.80;95.80;;;;;;4951395;28;20531;-82
2023/07/04 02:51:46;;;;;;;11.18;4.95;;;12.80;95.60;;;;;;4953781;28;20059;-82
2023/07/04 02:54:15;;;;;;;9.88;3.70;;;12.70;95.60;;;;;;4953438;28;20050;-81
2023/07/04 02:56:43;;;;;;;11.07;3.72;;;12.70;95.20;;;;;;4946995;28;20054;-82
2023/07/04 02:59:10;;;;;;;12.27;3.67;;;12.70;94.80;;;;;;4980153;28;20050;-82
2023/07/04 03:01:37;;;;;;;7.13;3.63;;;12.70;94.90;;;;;;4964443;28;20070;-82
2023/07/04 03:04:05;;;;;;;10.50;3.60;;;12.70;94.40;;;;;;4950848;28;20050;-81
2023/07/04 03:06:32;;;;;;;9.57;3.33;;;12.70;94.60;;;;;;4967927;28;20039;-81
2023/07/04 03:08:59;;;;;;;13.32;3.20;;;12.70;94.30;;;;;;4963608;28;20101;-81
2023/07/04 03:11:26;;;;;;;9.90;3.28;;;12.60;93.20;;;;;;4956447;28;20046;-81
2023/07/04 03:13:53;;;;;;;13.90;4.03;;;12.60;93.40;;;;;;4976723;28;20513;-81
2023/07/04 03:16:20;;;;;;;6.40;2.88;;;12.70;93.60;;;;;;4969076;28;20106;-82
2023/07/04 03:18:47;;;;;;;5.20;2.50;;;12.60;93.80;;;;;;4973260;28;20050;-81
2023/07/04 03:21:14;;;;;;;7.55;2.63;;;12.60;93.10;;;;;;4976329;28;20055;-79
2023/07/04 03:23:40;;;;;;;8.10;3.25;;;12.60;92.70;;;;;;4983253;28;20054;-81
2023/07/04 03:26:08;;;;;;;6.25;3.10;;;12.60;92.60;;;;;;4967346;28;20567;-82
2023/07/04 03:28:34;;;;;;;6.22;2.28;;;12.60;93.00;;;;;;4960944;28;20115;-82
2023/07/04 03:31:01;;;;;;;10.27;2.50;;;12.60;92.80;;;;;;4963762;28;20634;-81
2023/07/04 03:33:28;;;;;;;8.68;2.42;;;12.60;92.30;;;;;;4944911;28;20500;-80
2023/07/04 03:35:57;;;;;;;5.70;2.45;;;12.60;93.70;;;;;;4969988;28;20071;-82
2023/07/04 03:38:27;;;;;;;9.52;2.97;;;12.60;93.40;;;;;;4969020;28;20129;-81
2023/07/04 03:40:54;;;;;;;10.13;2.67;;;12.60;93.00;;;;;;4949718;28;20079;-81
2023/07/04 03:43:22;;;;;;;11.63;2.45;;;12.60;93.00;;;;;;4972904;28;20109;-81
2023/07/04 03:45:49;;;;;;;5.43;2.58;;;12.60;93.60;;;;;;4967212;28;20074;-80
2023/07/04 03:48:16;;;;;;;13.15;2.53;;;12.60;93.40;;;;;;4950542;28;20083;-79
2023/07/04 03:50:44;;;;;;;5.60;2.35;;;12.60;92.40;;;;;;4970718;28;20050;-79
2023/07/04 03:53:10;;;;;;;8.57;2.70;;;12.60;92.60;;;;;;4972954;28;20055;-80
2023/07/04 03:55:37;;;;;;;7.95;2.40;;;12.60;92.80;;;;;;4951012;28;20637;-80
2023/07/04 03:58:23;;;;;;;5.00;2.30;;;12.60;93.10;;;;;;4975131;28;20103;-83
2023/07/04 04:00:51;;;;;;;11.13;2.55;;;12.60;93.10;;;;;;4946717;28;20055;-84
2023/07/04 04:03:18;;;;;;;6.25;2.10;;;12.70;92.70;;;;;;4948029;28;20055;-81
2023/07/04 04:05:45;;;;;;;8.40;2.33;;;12.70;92.70;;;;;;4970046;28;20047;-81
2023/07/04 04:08:12;;;;;;;9.55;2.55;;;12.70;92.10;;;;;;4953250;28;20485;-81
2023/07/04 04:10:39;;;;;;;16.80;2.95;;;12.70;91.90;;;;;;4974771;28;20134;-84
2023/07/04 04:13:06;;;;;;;6.25;1.98;;;12.70;92.00;;;;;;4964198;28;20058;-82
2023/07/04 04:15:33;;;;;;;6.60;2.33;;;12.70;92.00;;;;;;4968729;28;20050;-81
2023/07/04 04:18:00;;;;;;;9.30;2.60;;;12.70;92.20;;;;;;4951680;28;20101;-82
2023/07/04 04:20:27;;;;;;;11.18;2.20;;;12.70;91.80;;;;;;4950743;28;20061;-82
2023/07/04 04:22:54;;;;;;;8.13;2.35;;;12.70;91.50;;;;;;4952454;28;20070;-82
2023/07/04 04:25:20;;;;;;;8.73;2.10;;;12.70;92.20;;;;;;4952056;28;20426;-82
2023/07/04 04:27:48;;;;;;;8.70;2.15;;;12.60;91.70;;;;;;4952860;28;20050;-81
2023/07/04 04:30:15;;;;;;;9.60;2.20;;;12.70;91.60;;;;;;4970064;28;20089;-81
2023/07/04 04:32:44;;;;;;;4.90;1.67;;;12.70;91.20;;;;;;4972078;28;20069;-82
2023/07/04 04:35:13;;;;;;;9.27;2.05;;;12.70;91.30;;;;;;4963909;28;20872;-82
2023/07/04 04:37:39;;;;;;;7.28;1.70;;;12.70;92.10;;;;;;4950711;28;20097;-82
2023/07/04 04:40:07;;;;;;;7.43;1.73;;;12.70;90.80;;;;;;4951703;28;20055;-80
2023/07/04 04:42:35;;;;;;;6.85;1.80;;;12.70;92.00;;;;;;4973058;28;20079;-81
2023/07/04 04:45:03;;;;;;;3.75;1.83;;;12.70;91.50;;;;;;4957056;28;20161;-81
2023/07/04 04:47:33;;;;;;;7.70;1.98;;;12.70;91.60;;;;;;4961982;28;20042;-82
2023/07/04 04:50:01;;;;;;;6.57;1.95;;;12.70;91.60;;;;;;4952394;28;20110;-81
2023/07/04 04:52:33;;;;;;;7.35;1.90;;;12.70;91.60;;;;;;4968170;28;20046;-79
2023/07/04 04:55:03;;;;;;;6.57;2.17;;;12.70;91.60;;;;;;4956149;28;20059;-79
2023/07/04 04:57:30;;;;;;;4.38;1.55;;;12.70;91.90;;;;;;4974362;28;20043;-80
2023/07/04 04:59:59;;;;;;;8.68;1.70;;;12.80;92.10;;;;;;4961459;28;20054;-77
2023/07/04 05:02:31;;;;;;;11.57;1.55;;;12.80;91.70;;;;;;4958147;28;20117;-79
2023/07/04 05:05:01;;;;;;;6.93;1.90;;;12.90;92.50;;;;;;4976526;28;20122;-79
2023/07/04 05:07:29;;;;;;;5.55;1.45;;;12.90;92.50;;;;;;4951622;28;20082;-74
2023/07/04 05:09:58;;;;;;;3.83;1.33;;;13.00;92.10;;;;;;4960927;28;20086;-78
2023/07/04 05:12:25;;;;;;;7.53;1.52;;;13.00;91.70;;;;;;4964813;28;20516;-78
2023/07/04 05:14:52;;;;;;;5.28;1.63;;;13.10;92.20;;;;;;4971585;28;20150;-76
2023/07/04 05:17:19;;;;;;;7.38;1.13;;;13.10;91.30;;;;;;4950691;28;20055;-75
2023/07/04 05:19:50;;;;;;;6.57;1.40;;;13.20;91.70;;;;;;4982833;23;20062;-75
2023/07/04 05:22:18;;;;;;;5.80;1.10;;;13.20;90.10;;;;;;5004391;28;20046;-76
2023/07/04 05:24:45;;;;;;;5.53;1.40;;;13.20;91.10;;;;;;5009189;28;20482;-80
2023/07/04 05:27:12;;;;;;;6.82;1.17;;;13.30;90.40;;;;;;4989587;28;20042;-80
2023/07/04 05:29:39;;;;;;;6.47;1.40;;;13.30;91.00;;;;;;5014759;28;20574;-76
2023/07/04 05:32:06;;;;;;;11.05;1.42;;;13.40;91.60;;;;;;5014484;28;20049;-80
2023/07/04 05:34:34;;;;;;;5.05;1.30;;;13.50;90.50;;;;;;5005530;28;20060;-76
2023/07/04 05:37:04;;;;;;;13.23;1.52;;;13.60;90.00;;;;;;4999325;28;20060;-79
2023/07/04 05:39:33;;;;;;;13.75;2.28;;;13.60;89.10;;;;;;4988277;28;20060;-78
2023/07/04 05:41:59;;;;;;;11.15;1.65;;;13.70;89.30;;;;;;4988766;28;20088;-87
2023/07/04 05:44:26;;;;;;;7.57;1.65;;;13.80;89.60;;;;;;4997286;28;20136;-84
2023/07/04 05:46:54;;;;;;;8.50;1.85;;;13.80;88.60;;;;;;4989823;28;20053;-83
2023/07/04 05:49:21;;;;;;;10.10;1.65;;;13.90;89.80;;;;;;4991056;28;20053;-83
2023/07/04 05:51:48;;;;;;;9.98;1.60;;;13.90;88.20;;;;;;4997997;28;20645;-85
2023/07/04 05:54:15;;;;;;;4.85;1.48;;;14.00;86.80;;;;;;4999828;28;20474;-84
2023/07/04 05:56:42;;;;;;;8.65;1.73;;;14.00;87.20;;;;;;4991517;28;20050;-82
2023/07/04 05:59:09;;;;;;;8.77;1.67;;;14.10;87.90;;;;;;4996433;28;20054;-82
2023/07/04 06:01:41;;;;;;;6.65;1.67;;;14.10;88.40;;;;;;4992575;28;20049;-82
2023/07/04 06:04:10;;;;;;;9.75;1.65;;;14.20;88.80;;;;;;5007037;28;20582;-82
2023/07/04 06:06:50;;;;;;;7.95;2.00;;;14.30;88.40;;;;;;4992726;28;20046;-82
2023/07/04 06:09:17;;;;;;;7.22;1.35;;;14.30;86.90;;;;;;5010209;28;20065;-82
2023/07/04 06:11:46;;;;;;;12.38;1.75;;;14.40;84.50;;;;;;5008026;28;20070;-90
2023/07/04 06:14:20;;;;;;;6.93;1.40;;;14.50;87.10;;;;;;5005917;28;20104;-84
2023/07/04 06:16:47;;;;;;;10.95;1.45;;;14.60;84.70;;;;;;4993049;28;20069;-82
2023/07/04 06:19:14;;;;;;;10.63;1.63;;;14.70;85.40;;;;;;5017893;28;20057;-83
2023/07/04 06:21:42;;;;;;;4.30;1.20;;;14.90;86.30;;;;;;5012604;28;20096;-83
2023/07/04 06:24:11;;;;;;;4.80;1.30;;;15.10;84.50;;;;;;4991596;28;20053;-82
2023/07/04 06:26:43;;;;;;;6.35;1.45;;;15.20;83.80;;;;;;4990800;28;20698;-82
2023/07/04 06:29:12;;;;;;;7.28;1.45;;;15.40;83.40;;;;;;4991737;28;20062;-83
2023/07/04 06:31:42;;;;;;;8.23;1.55;;;15.60;83.10;;;;;;4990882;28;20045;-82
2023/07/04 06:34:39;;;;;;;2.90;1.23;;;15.80;81.60;;;;;;5105508;27;20396;-83
2023/07/04 06:37:06;;;;;;;3.67;1.40;;;16.10;80.50;;;;;;5113026;22;20044;-82
2023/07/04 06:39:33;;;;;;;7.97;1.42;;;16.10;78.00;;;;;;5103104;28;20129;-82
2023/07/04 06:42:00;;;;;;;8.18;1.42;;;16.10;77.70;;;;;;5088949;28;20040;-85
2023/07/04 06:44:27;;;;;;;7.18;1.88;;;16.10;78.90;;;;;;5096540;28;20131;-84
2023/07/04 06:46:54;;;;;;;8.30;1.77;;;16.30;80.10;;;;;;5097442;28;20051;-84
2023/07/04 06:49:21;;;;;;;5.65;1.63;;;16.40;76.60;;;;;;5095113;28;20786;-80
2023/07/04 06:51:48;;;;;;;6.40;1.40;;;16.40;76.80;;;;;;5099784;28;20522;-80
2023/07/04 06:54:15;;;;;;;6.72;1.38;;;16.50;78.80;;;;;;5100657;28;20136;-80
2023/07/04 06:56:43;;;;;;;10.30;2.13;;;16.80;78.20;;;;;;5101969;28;20134;-80
2023/07/04 06:59:10;;;;;;;2.60;1.10;;;16.80;76.40;;;;;;5102256;28;20035;-80
2023/07/04 07:01:39;;;;;;;5.03;1.23;;;17.10;76.80;;;;;;5088307;28;20044;-80
2023/07/04 07:04:06;;;;;;;7.18;1.60;;;17.30;72.90;;;;;;5092977;28;20189;-80
2023/07/04 07:06:34;;;;;;;12.65;1.98;;;17.30;73.30;;;;;;5091634;28;20060;-80
2023/07/04 07:09:03;;;;;;;9.80;1.73;;;17.40;73.90;;;;;;5095861;28;20750;-81
2023/07/04 07:11:30;;;;;;;10.23;1.13;;;17.60;73.20;;;;;;5104774;28;20047;-83
2023/07/04 07:13:57;;;;;;;9.35;1.55;;;17.80;72.90;;;;;;5103422;28;20115;-84
2023/07/04 07:16:25;;;;;;;6.20;1.50;;;18.00;71.20;;;;;;5093347;28;20040;-82
2023/07/04 07:18:54;;;;;;;6.47;1.40;;;18.30;71.50;;;;;;5098515;28;20040;-83
2023/07/04 07:21:24;;;;;;;5.10;1.58;;;18.40;71.20;;;;;;5102352;28;20077;-85
2023/07/04 07:23:52;;;;;;;6.78;1.17;;;18.60;69.80;;;;;;5105057;28;20667;-85
2023/07/04 07:26:24;;;;;;;5.18;1.30;;;18.70;68.20;;;;;;5099890;28;20535;-83
2023/07/04 07:28:53;;;;;;;6.50;2.13;;;18.80;66.90;;;;;;5102252;28;20124;-86
2023/07/04 07:31:25;;;;;;;7.47;1.17;;;18.80;65.00;;;;;;5104024;28;20105;-80
2023/07/04 07:33:59;;;;;;;4.28;1.40;;;18.80;66.40;;;;;;5105507;28;20044;-86
2023/07/04 07:36:30;;;;;;;5.22;1.50;;;18.90;67.60;;;;;;5094716;28;20051;-84
2023/07/04 07:38:58;;;;;;;6.00;1.60;;;19.20;67.00;;;;;;5103632;28;20086;-82
2023/07/04 07:41:30;;;;;;;11.43;1.40;;;19.40;66.60;;;;;;5102890;28;20090;-83
2023/07/04 07:43:57;;;;;;;7.43;1.25;;;19.40;64.40;;;;;;5100061;28;20101;-85
2023/07/04 07:46:24;;;;;;;4.60;1.48;;;19.30;62.30;;;;;;5089036;28;20052;-86
2023/07/04 07:48:51;;;;;;;6.07;1.30;;;19.30;65.50;;;;;;5090420;28;20765;-88
2023/07/04 07:51:19;;;;;;;4.68;1.45;;;19.70;65.10;;;;;;5089032;28;20561;-86
2023/07/04 07:53:48;;;;;;;5.07;1.48;;;19.80;65.50;;;;;;5086952;28;20044;-81
2023/07/04 07:56:18;;;;;;;3.90;1.00;;;19.80;65.10;;;;;;5077147;28;20475;-80
2023/07/04 07:58:45;;;;;;;9.25;1.35;;;20.10;62.80;;;;;;5084521;28;20044;-80
2023/07/04 08:01:24;;;;;;;5.32;1.48;;;20.00;62.50;;;;;;5083614;28;20052;-80
2023/07/04 08:03:51;;;;;;;3.70;1.30;;;20.10;61.40;;;;;;5084967;28;20079;-80
2023/07/04 08:06:34;;;;;;;8.55;1.55;;;20.30;64.70;;;;;;5088481;28;20806;-80
2023/07/04 08:09:03;;;;;;;8.43;1.40;;;20.60;61.00;;;;;;5084009;28;20097;-81
2023/07/04 08:11:30;;;;;;;7.60;1.55;;;20.80;61.70;;;;;;5086064;28;20555;-81
2023/07/04 08:13:58;;;;;;;6.95;1.33;;;20.70;63.60;;;;;;5078634;28;20155;-81
2023/07/04 08:16:39;;;;;;;2.40;0.90;;;20.80;60.90;;;;;;5086199;28;20044;-80
2023/07/04 08:19:06;;;;;;;7.53;1.67;;;20.70;58.90;;;;;;5088244;28;20438;-81
2023/07/04 08:21:33;;;;;;;6.68;0.95;;;20.50;58.90;;;;;;5084368;28;20097;-81
2023/07/04 08:24:00;;;;;;;7.78;1.40;;;20.30;58.80;;;;;;5088651;28;20476;-81
2023/07/04 08:26:27;;;;;;;6.53;1.13;;;20.30;58.40;;;;;;5088400;28;20040;-81
2023/07/04 08:28:55;;;;;;;4.00;1.00;;;20.40;57.80;;;;;;5089403;28;20524;-81
2023/07/04 08:31:23;;;;;;;8.05;1.20;;;20.60;58.50;;;;;;5079409;28;20163;-81
2023/07/04 08:33:50;;;;;;;6.22;1.23;;;20.80;54.10;;;;;;5080135;28;20043;-80
2023/07/04 08:36:18;;;;;;;8.60;1.30;;;20.70;56.10;;;;;;5088470;28;20044;-81
2023/07/04 08:38:47;;;;;;;6.88;1.20;;;20.40;56.40;;;;;;5080988;28;20739;-81
2023/07/04 08:41:42;;;;;;;8.05;1.60;;;20.30;58.00;;;;;;5076884;28;20663;-81
2023/07/04 08:44:28;;;;;;;7.93;1.20;;;20.50;56.10;;;;;;5075782;28;20052;-81
2023/07/04 08:46:58;;;;;;;5.45;1.83;;;20.40;56.10;;;;;;5082921;28;20126;-82
2023/07/04 08:49:28;;;;;;;4.45;1.10;;;20.20;57.10;;;;;;5087040;28;20649;-81
2023/07/04 08:52:02;;;;;;;9.20;1.58;;;19.80;56.70;;;;;;5081595;28;20044;-81
2023/07/04 08:54:29;;;;;;;5.75;1.10;;;19.60;56.60;;;;;;5086960;28;20431;-81
2023/07/04 08:56:59;;;;;;;5.55;1.23;;;19.40;56.10;;;;;;5078171;28;20048;-82
2023/07/04 08:59:47;;;;;;;3.95;1.20;;;19.30;56.60;;;;;;5089695;28;20032;-82
2023/07/04 09:02:39;;;;;;;6.07;1.17;;;19.20;57.50;;;;;;5082516;28;20036;-81
2023/07/04 09:05:26;;;;;;;4.45;1.20;;;19.10;59.40;;;;;;5084448;28;20047;-82
2023/07/04 09:08:12;;;;;;;4.03;1.20;;;19.10;59.70;;;;;;5080533;28;20840;-81
2023/07/04 09:10:46;;;;;;;3.13;1.30;;;19.20;59.00;;;;;;5078384;28;20076;-81
2023/07/04 09:13:36;;;;;;;6.05;1.48;;;19.20;57.50;;;;;;5087621;28;20083;-81
2023/07/04 09:16:16;;;;;;;8.05;1.40;;;19.10;57.60;;;;;;5085332;28;20054;-82
2023/07/04 09:18:57;;;;;;;3.85;1.30;;;19.00;58.10;;;;;;5087332;28;20056;-82
2023/07/04 09:21:25;;;;;;;7.22;2.45;;;18.90;58.10;;;;;;5088556;28;20048;-80
2023/07/04 09:23:55;;;;;;;8.38;1.52;;;18.80;59.80;;;;;;5089422;28;20040;-85
2023/07/04 09:26:26;;;;;;;7.53;1.35;;;18.80;61.70;;;;;;5082797;28;20052;-83
2023/07/04 09:29:43;;;;;;;5.80;1.52;;;19.20;62.50;;;;;;5083298;28;20048;-84
2023/07/04 09:32:12;;;;;;;7.03;1.23;;;19.80;60.70;;;;;;5086104;28;20071;-86
2023/07/04 09:34:47;;;;;;;1.95;1.10;;;20.20;57.70;;;;;;5088773;28;20079;-84
2023/07/04 09:37:17;;;;;;;4.88;1.23;;;20.20;56.60;;;;;;5077669;28;20635;-84
2023/07/04 09:39:58;;;;;;;3.83;1.40;;;20.30;59.10;;;;;;5088873;28;20073;-86
2023/07/04 09:42:45;;;;;;;2.03;1.20;;;20.60;57.40;;;;;;5081268;28;20109;-86
2023/07/04 09:45:23;;;;;;;4.93;1.23;;;21.10;58.30;;;;;;5085006;28;20061;-86
2023/07/04 09:47:51;;;;;;;5.88;1.27;;;21.60;57.90;;;;;;5071867;28;20051;-85
2023/07/04 09:50:30;;;;;;;4.10;1.33;;;21.70;56.10;;;;;;5087853;28;20060;-84
2023/07/04 09:53:03;;;;;;;4.65;1.20;;;21.80;53.00;;;;;;5088079;28;20048;-84
2023/07/04 09:55:31;;;;;;;5.38;2.03;;;21.70;53.80;;;;;;5082639;28;20072;-84
2023/07/04 09:58:19;;;;;;;4.68;1.10;;;21.60;57.90;;;;;;5088536;28;20071;-84
2023/07/04 10:01:11;;;;;;;3.03;1.13;;;21.80;53.80;;;;;;5087098;28;20124;-85
2023/07/04 10:03:40;;;;;;;4.15;1.30;;;21.50;51.90;;;;;;5082589;28;20054;-91
2023/07/04 10:06:11;;;;;;;1.80;1.00;;;21.30;53.60;;;;;;5091807;28;20441;-89
2023/07/04 10:08:53;;;;;;;4.13;1.10;;;21.40;53.30;;;;;;5086626;28;20056;-95
2023/07/04 10:11:32;;;;;;;15.07;1.67;;;21.40;53.40;;;;;;5088545;28;20484;-93
2023/07/04 10:14:03;;;;;;;6.72;1.05;;;21.40;53.30;;;;;;5081628;28;20063;-87
2023/07/04 10:16:30;;;;;;;2.28;1.02;;;21.30;54.80;;;;;;5076205;28;20049;-86
2023/07/04 10:19:11;;;;;;;4.85;1.02;;;21.20;54.40;;;;;;5088054;28;20123;-85
2023/07/04 10:21:45;;;;;;;5.72;0.93;;;20.90;56.30;;;;;;5086338;28;20524;-85
2023/07/04 10:24:20;;;;;;;3.15;0.82;;;21.00;55.10;;;;;;5081653;28;20048;-87
2023/07/04 10:26:58;;;;;;;3.28;1.23;;;21.40;59.70;;;;;;5071783;28;20048;-86
2023/07/04 10:29:29;;;;;;;5.72;1.23;;;21.90;59.20;;;;;;5083372;28;20052;-84
2023/07/04 10:32:01;;;;;;;7.38;1.30;;;22.10;52.70;;;;;;5072936;28;20178;-86
2023/07/04 10:34:30;;;;;;;5.68;1.10;;;21.90;53.90;;;;;;5085928;28;20056;-86
2023/07/04 10:37:00;;;;;;;4.55;1.38;;;21.90;55.90;;;;;;5087784;28;20044;-86
2023/07/04 10:39:27;;;;;;;4.47;1.35;;;21.60;53.70;;;;;;5083763;28;20086;-85
2023/07/04 10:42:11;;;;;;;3.67;1.23;;;21.30;54.30;;;;;;5086632;28;20164;-86
2023/07/04 10:44:39;;;;;;;5.70;1.17;;;21.20;56.30;;;;;;5085224;28;20052;-86
2023/07/04 10:47:12;;;;;;;2.97;0.90;;;21.40;56.50;;;;;;5085182;28;20051;-87
2023/07/04 10:49:47;;;;;;;5.38;1.08;;;21.80;56.20;;;;;;5086250;28;20502;-86
2023/07/04 10:52:33;;;;;;;2.20;1.00;;;22.10;55.20;;;;;;5079482;28;20050;-86
2023/07/04 10:55:01;;;;;;;5.40;1.17;;;22.20;54.00;;;;;;5081305;28;20708;-87
2023/07/04 10:57:39;;;;;;;3.90;0.90;;;22.10;53.70;;;;;;5087262;28;20894;-85
2023/07/04 11:00:41;;;;;;;5.25;0.98;;;22.00;51.40;;;;;;5085998;28;20128;-86
2023/07/04 11:03:32;;;;;;;4.28;1.00;;;22.00;52.70;;;;;;5059410;28;20135;-86
2023/07/04 11:06:01;;;;;;;6.47;1.30;;;22.20;55.00;;;;;;5080347;28;20054;-87
2023/07/04 11:08:34;;;;;;;4.95;1.00;;;22.50;53.30;;;;;;5086433;28;20044;-88
2023/07/04 11:11:08;;;;;;;10.13;1.73;;;22.60;54.20;;;;;;5104317;23;20041;-85
2023/07/04 11:13:49;;;;;;;5.63;1.10;;;22.90;54.70;;;;;;5083977;28;20113;-86
2023/07/04 11:16:18;;;;;;;4.30;0.93;;;23.30;53.90;;;;;;5085601;28;20046;-88
2023/07/04 11:18:57;;;;;;;4.95;1.08;;;23.50;51.50;;;;;;5083145;28;20657;-87
2023/07/04 11:21:25;;;;;;;1.77;0.65;;;23.80;53.90;;;;;;5087766;28;20106;-88
2023/07/04 11:23:54;;;;;;;2.33;0.70;;;24.00;51.30;;;;;;5106498;28;20097;-87
2023/07/04 11:27:08;;;;;;;6.63;0.90;;;24.20;49.20;;;;;;5088678;28;20052;-89
2023/07/04 11:29:58;;;;;;;4.97;0.90;;;24.30;45.80;;;;;;5078092;28;20045;-76
2023/07/04 11:32:37;;;;;;;4.18;1.00;;;24.50;47.40;;;;;;5087947;28;20720;-82
2023/07/04 11:35:10;;;;;;;5.72;0.88;;;24.20;46.00;;;;;;5106594;28;20050;-86
2023/07/04 11:37:40;;;;;;;4.97;0.90;;;23.90;48.20;;;;;;5091306;28;20056;-85
2023/07/04 11:40:23;;;;;;;3.72;0.70;;;24.10;47.90;;;;;;5105540;28;20044;-85
2023/07/04 11:43:03;;;;;;;22.55;1.45;;;23.70;45.40;;;;;;5088895;28;20127;-84
2023/07/04 11:45:32;;;;;;;4.20;0.77;;;23.70;47.80;;;;;;5090073;28;20048;-85
2023/07/04 11:48:03;;;;;;;3.15;1.20;;;23.90;49.10;;;;;;5090841;28;20743;-85
2023/07/04 11:50:33;;;;;;;2.08;0.73;;;23.80;48.10;;;;;;5089732;28;20051;-85
2023/07/04 11:53:09;;;;;;;4.35;0.90;;;23.70;47.60;;;;;;5090470;28;20050;-85
2023/07/04 11:55:36;;;;;;;;;;;23.40;47.70;;;;;;5091631;28;20087;-85
2023/07/04 11:58:08;;;;;;;2.97;1.20;;;23.00;45.20;;;;;;5091113;28;20596;-85
2023/07/04 12:00:38;;;;;;;7.35;1.08;;;22.70;47.20;;;;;;5089622;28;20123;-85
2023/07/04 12:03:20;;;;;;;3.90;0.70;;;22.30;48.90;;;;;;5090957;28;20072;-85
2023/07/04 12:05:51;;;;;;;4.45;0.80;;;22.10;48.40;;;;;;5090284;28;20050;-86
2023/07/04 12:08:25;;;;;;;4.28;0.90;;;21.70;48.10;;;;;;5090926;28;20101;-86
2023/07/04 12:11:00;;;;;;;3.25;0.98;;;21.30;48.30;;;;;;5088395;28;20048;-85
2023/07/04 12:13:31;;;;;;;15.87;2.10;;;21.00;50.40;;;;;;5089558;28;20052;-83
2023/07/04 12:15:58;;;;;;;9.20;1.48;;;20.60;62.20;;;;;;5091069;28;20135;-80
2023/07/04 12:18:31;;;;;;;4.68;1.45;;;19.90;67.80;;;;;;5091363;28;20052;-82
2023/07/04 12:20:58;;;;;;;4.28;1.98;;;18.90;67.40;;;;;;5091627;28;20484;-83
2023/07/04 12:23:26;;;;;;;5.38;1.25;;;18.00;71.80;;;;;;5091384;28;20063;-80
2023/07/04 12:25:56;;;;;;;5.70;1.38;;;17.60;75.10;;;;;;5086117;28;20762;-81
2023/07/04 12:28:26;;;;;;;4.82;1.50;;;17.20;77.40;;;;;;5084546;28;20400;-81
2023/07/04 12:30:59;;;;;;;5.05;1.50;;;16.90;79.60;;;;;;5086284;28;20134;-87
2023/07/04 12:33:47;;;;;;;2.72;1.52;;;16.60;80.40;;;;;;5083315;28;20056;-88
2023/07/04 12:36:16;;;;;;;2.03;1.40;;;16.40;81.20;;;;;;5088230;28;20105;-88
2023/07/04 12:38:45;;;;;;;3.50;1.60;;;16.30;82.20;;;;;;5082949;28;20043;-86
2023/07/04 12:41:16;;;;;;;3.20;1.35;;;16.30;83.30;;;;;;5083859;28;20123;-86
2023/07/04 12:43:44;;;;;;;4.15;1.40;;;16.30;83.00;;;;;;5084039;28;20048;-86
2023/07/04 12:46:18;;;;;;;4.70;1.38;;;16.60;83.20;;;;;;5091219;28;20113;-87
2023/07/04 12:48:48;;;;;;;4.70;1.23;;;17.00;86.10;;;;;;5083770;28;20040;-86
2023/07/04 12:51:21;;;;;;;2.92;1.00;;;17.50;86.10;;;;;;5087543;28;20767;-88
2023/07/04 12:53:49;;;;;;;1.30;0.88;;;17.80;77.40;;;;;;5085079;28;20039;-88
2023/07/04 12:56:17;;;;;;;3.22;1.10;;;17.90;72.70;;;;;;5092028;28;20047;-88
2023/07/04 12:58:45;;;;;;;4.30;1.00;;;17.90;75.20;;;;;;5089787;28;20047;-89
2023/07/04 13:01:26;;;;;;;5.53;1.13;;;18.00;72.90;;;;;;5087539;28;20040;-88
2023/07/04 13:03:59;;;;;;;7.25;1.20;;;18.10;72.00;;;;;;5089398;28;20048;-88